createdAt,value
2019-04-16T00:01:21.505Z,5.40
2019-04-16T00:03:55.271Z,5.20
2019-04-16T00:06:32.753Z,5.20
2019-04-16T00:09:07.549Z,5.00
2019-04-16T00:11:47.117Z,4.90
2019-04-16T00:14:28.210Z,4.90
2019-04-16T00:16:57.023Z,5.00
2019-04-16T00:19:25.821Z,5.00
2019-04-16T00:22:11.542Z,4.90
2019-04-16T00:24:39.903Z,4.80
2019-04-16T00:27:08.836Z,4.70
2019-04-16T00:29:39.663Z,4.60
2019-04-16T00:32:27.252Z,4.50
2019-04-16T00:34:56.207Z,4.40
2019-04-16T00:37:25.136Z,4.40
2019-04-16T00:39:56.093Z,4.30
2019-04-16T00:42:24.535Z,4.20
2019-04-16T00:44:53.449Z,4.10
2019-04-16T00:47:22.336Z,4.10
2019-04-16T00:49:51.476Z,4.00
2019-04-16T00:52:20.294Z,3.90
2019-04-16T00:54:49.199Z,3.90
2019-04-16T00:57:18.716Z,3.90
2019-04-16T00:59:47.631Z,3.80
2019-04-16T01:02:16.499Z,3.70
2019-04-16T01:04:45.475Z,3.70
2019-04-16T01:07:14.351Z,3.70
2019-04-16T01:09:43.506Z,3.70
2019-04-16T01:12:12.475Z,3.70
2019-04-16T01:14:41.358Z,3.70
2019-04-16T01:17:10.231Z,3.70
2019-04-16T01:19:41.202Z,3.70
2019-04-16T01:22:09.715Z,3.60
2019-04-16T01:24:38.630Z,3.50
2019-04-16T01:27:07.498Z,3.40
2019-04-16T01:29:36.334Z,3.40
2019-04-16T01:32:42.459Z,3.30
2019-04-16T01:35:29.051Z,3.30
2019-04-16T01:38:20.662Z,3.30
2019-04-16T01:40:59.726Z,3.40
2019-04-16T01:43:28.619Z,3.30
2019-04-16T01:46:00.779Z,3.30
2019-04-16T01:48:28.058Z,3.20
2019-04-16T01:50:56.954Z,3.10
2019-04-16T01:53:25.797Z,3.10
2019-04-16T01:55:56.987Z,3.00
2019-04-16T01:58:25.160Z,3.00
2019-04-16T02:00:54.046Z,3.00
2019-04-16T02:03:22.943Z,2.90
2019-04-16T02:05:54.637Z,2.80
2019-04-16T02:08:22.454Z,2.70
2019-04-16T02:10:51.421Z,2.60
2019-04-16T02:13:20.363Z,2.60
2019-04-16T02:15:50.616Z,2.50
2019-04-16T02:18:20.205Z,2.40
2019-04-16T02:20:49.164Z,2.40
2019-04-16T02:23:18.043Z,2.30
2019-04-16T02:25:48.451Z,2.30
2019-04-16T02:28:17.526Z,2.30
2019-04-16T02:30:46.687Z,2.20
2019-04-16T02:33:15.643Z,2.20
2019-04-16T02:35:44.532Z,2.10
2019-04-16T02:38:14.304Z,2.10
2019-04-16T02:40:43.273Z,2.00
2019-04-16T02:43:12.235Z,2.00
2019-04-16T02:45:41.456Z,2.00
2019-04-16T02:48:14.823Z,1.90
2019-04-16T02:50:47.004Z,1.90
2019-04-16T02:53:54.421Z,1.80
2019-04-16T02:56:41.853Z,1.80
2019-04-16T02:59:23.510Z,1.70
2019-04-16T03:02:11.720Z,1.70
2019-04-16T03:04:45.024Z,1.60
2019-04-16T03:07:14.281Z,1.60
2019-04-16T03:09:43.313Z,1.60
2019-04-16T03:12:12.230Z,1.60
2019-04-16T03:14:41.093Z,1.50
2019-04-16T03:17:18.257Z,1.50
2019-04-16T03:19:51.012Z,1.40
2019-04-16T03:22:18.539Z,1.40
2019-04-16T03:24:47.449Z,1.30
2019-04-16T03:27:16.350Z,1.20
2019-04-16T03:29:45.371Z,1.20
2019-04-16T03:32:15.496Z,1.10
2019-04-16T03:34:44.614Z,1.00
2019-04-16T03:37:13.824Z,0.90
2019-04-16T03:39:44.664Z,0.90
2019-04-16T03:42:13.416Z,0.80
2019-04-16T03:44:42.382Z,0.80
2019-04-16T03:47:11.270Z,0.70
2019-04-16T03:49:40.084Z,0.60
2019-04-16T03:52:09.784Z,0.60
2019-04-16T03:54:38.826Z,0.50
2019-04-16T03:57:07.803Z,0.50
2019-04-16T03:59:39.416Z,0.50
2019-04-16T04:02:07.467Z,0.40
2019-04-16T04:04:36.429Z,0.40
2019-04-16T04:07:05.578Z,0.40
2019-04-16T04:09:34.409Z,0.40
2019-04-16T04:12:03.294Z,0.40
2019-04-16T04:14:32.258Z,0.30
2019-04-16T04:17:05.452Z,0.30
2019-04-16T04:19:31.996Z,0.30
2019-04-16T04:22:00.844Z,0.20
2019-04-16T04:24:31.399Z,0.20
2019-04-16T04:27:00.504Z,0.20
2019-04-16T04:29:29.835Z,0.20
2019-04-16T04:32:03.036Z,0.20
2019-04-16T04:34:29.893Z,0.20
2019-04-16T04:36:59.723Z,0.20
2019-04-16T04:39:28.852Z,0.20
2019-04-16T04:41:57.852Z,0.20
2019-04-16T04:44:26.654Z,0.20
2019-04-16T04:46:55.519Z,0.20
2019-04-16T04:49:24.466Z,0.20
2019-04-16T04:51:53.382Z,0.20
2019-04-16T04:54:23.457Z,0.20
2019-04-16T04:56:52.405Z,0.20
2019-04-16T04:59:21.300Z,0.20
2019-04-16T05:01:50.114Z,0.20
2019-04-16T05:04:49.583Z,0.30
2019-04-16T05:07:17.925Z,0.30
2019-04-16T05:09:46.811Z,0.40
2019-04-16T05:12:18.288Z,0.40
2019-04-16T05:14:57.385Z,0.50
2019-04-16T05:17:26.336Z,0.50
2019-04-16T05:19:55.138Z,0.60
2019-04-16T05:22:23.933Z,0.60
2019-04-16T05:24:52.904Z,0.70
2019-04-16T05:27:21.719Z,0.80
2019-04-16T05:29:50.505Z,0.90
2019-04-16T05:32:19.595Z,1.00
2019-04-16T05:34:48.701Z,1.20
2019-04-16T05:37:20.161Z,1.60
2019-04-16T05:39:48.294Z,1.80
2019-04-16T05:42:17.301Z,2.00
2019-04-16T05:44:46.146Z,2.10
2019-04-16T05:47:17.867Z,2.20
2019-04-16T05:49:46.188Z,2.30
2019-04-16T05:52:15.060Z,2.50
2019-04-16T05:55:19.407Z,2.70
2019-04-16T05:57:49.193Z,3.20
2019-04-16T06:00:38.623Z,4.20
2019-04-16T06:03:06.720Z,5.00
2019-04-16T06:05:35.623Z,5.40
2019-04-16T06:08:11.293Z,5.60
2019-04-16T06:10:40.317Z,5.60
2019-04-16T06:13:41.271Z,5.50
2019-04-16T06:16:33.113Z,5.60
2019-04-16T06:19:29.946Z,5.70
2019-04-16T06:22:20.748Z,5.80
2019-04-16T06:25:09.238Z,6.40
2019-04-16T06:27:55.786Z,8.40
2019-04-16T06:30:34.039Z,10.80
2019-04-16T06:33:10.025Z,13.10
2019-04-16T06:35:57.074Z,14.90
2019-04-16T06:38:30.289Z,16.40
2019-04-16T06:41:12.452Z,18.20
2019-04-16T06:43:44.086Z,18.90
2019-04-16T06:46:29.903Z,20.00
2019-04-16T06:49:17.318Z,21.10
2019-04-16T06:52:02.631Z,22.00
2019-04-16T06:54:45.318Z,23.20
2019-04-16T06:57:29.327Z,24.30
2019-04-16T07:00:15.534Z,25.30
2019-04-16T07:03:09.580Z,25.80
2019-04-16T07:06:04.054Z,26.40
2019-04-16T07:08:52.717Z,27.00
2019-04-16T07:11:22.078Z,27.20
2019-04-16T07:13:50.883Z,27.40
2019-04-16T07:16:19.744Z,27.30
2019-04-16T07:18:48.592Z,28.20
2019-04-16T07:21:18.269Z,28.70
2019-04-16T07:23:47.410Z,29.40
2019-04-16T07:26:16.431Z,29.80
2019-04-16T07:28:50.678Z,30.20
2019-04-16T07:31:35.101Z,30.00
2019-04-16T07:34:29.314Z,30.70
2019-04-16T07:37:12.484Z,30.60
2019-04-16T07:40:08.727Z,30.70
2019-04-16T07:43:47.021Z,30.80
2019-04-16T07:45:56.275Z,30.70
2019-04-16T07:48:46.895Z,31.80
2019-04-16T07:51:35.992Z,32.00
2019-04-16T07:54:22.519Z,32.30
2019-04-16T07:56:52.129Z,32.90
2019-04-16T07:59:22.829Z,34.10
2019-04-16T08:01:51.626Z,33.70
2019-04-16T08:04:28.659Z,33.60
2019-04-16T08:06:51.002Z,33.40
2019-04-16T08:09:19.781Z,33.90
2019-04-16T08:11:48.653Z,34.40
2019-04-16T08:14:17.733Z,34.90
2019-04-16T08:16:47.861Z,34.90
2019-04-16T08:19:17.010Z,35.50
2019-04-16T08:21:45.815Z,35.80
2019-04-16T08:24:24.864Z,36.20
2019-04-16T08:26:53.891Z,36.50
2019-04-16T08:29:22.733Z,36.60
2019-04-16T08:31:51.806Z,36.50
2019-04-16T08:34:20.592Z,37.30
2019-04-16T08:36:49.375Z,37.90
2019-04-16T08:39:18.397Z,38.20
2019-04-16T08:41:52.121Z,38.70
2019-04-16T08:44:18.007Z,39.00
2019-04-16T08:46:46.821Z,39.40
2019-04-16T08:49:15.770Z,38.40
2019-04-16T08:51:44.608Z,39.40
2019-04-16T08:54:17.950Z,39.90
2019-04-16T08:56:43.963Z,40.30
2019-04-16T08:59:12.782Z,41.40
2019-04-16T09:01:41.805Z,42.00
2019-04-16T09:04:10.750Z,41.50
2019-04-16T09:06:42.582Z,41.40
2019-04-16T09:09:28.302Z,41.10
2019-04-16T09:12:00.804Z,41.40
2019-04-16T09:14:31.755Z,40.80
2019-04-16T09:17:09.947Z,41.60
2019-04-16T09:19:41.229Z,41.90
2019-04-16T09:22:15.499Z,42.20
2019-04-16T09:24:52.247Z,41.30
2019-04-16T09:27:33.695Z,41.10
2019-04-16T09:30:30.221Z,41.50
2019-04-16T09:33:04.059Z,42.30
2019-04-16T09:36:03.926Z,43.00
2019-04-16T09:38:46.395Z,43.50
2019-04-16T09:41:36.473Z,43.00
2019-04-16T09:44:05.779Z,43.90
2019-04-16T09:46:50.617Z,43.20
2019-04-16T09:49:06.267Z,42.70
2019-04-16T09:51:35.251Z,43.10
2019-04-16T09:54:04.215Z,43.60
2019-04-16T09:56:33.029Z,43.20
2019-04-16T09:59:19.159Z,43.80
2019-04-16T10:01:50.701Z,43.60
2019-04-16T10:04:20.489Z,43.40
2019-04-16T10:06:49.447Z,43.40
2019-04-16T10:09:21.654Z,43.60
2019-04-16T10:11:48.847Z,44.00
2019-04-16T10:14:17.754Z,43.80
2019-04-16T10:16:46.961Z,43.70
2019-04-16T10:19:15.886Z,44.00
2019-04-16T10:21:45.137Z,44.10
2019-04-16T10:24:35.985Z,43.60
2019-04-16T10:27:05.683Z,44.00
2019-04-16T10:29:34.532Z,45.00
2019-04-16T10:32:03.477Z,46.00
2019-04-16T10:34:32.446Z,45.40
2019-04-16T10:37:01.418Z,45.60
2019-04-16T10:39:44.562Z,45.80
2019-04-16T10:42:38.469Z,45.10
2019-04-16T10:45:22.434Z,44.70
2019-04-16T10:47:59.561Z,45.00
2019-04-16T10:50:35.818Z,44.20
2019-04-16T10:53:21.733Z,45.00
2019-04-16T10:56:08.361Z,45.40
2019-04-16T10:58:55.370Z,45.60
2019-04-16T11:01:35.182Z,46.80
2019-04-16T11:04:21.065Z,47.60
2019-04-16T11:06:50.946Z,47.40
2019-04-16T11:09:19.881Z,46.80
2019-04-16T11:11:48.970Z,47.40
2019-04-16T11:14:17.868Z,46.90
2019-04-16T11:16:50.004Z,46.40
2019-04-16T11:19:19.009Z,47.30
2019-04-16T11:21:47.989Z,47.30
2019-04-16T11:24:20.274Z,46.50
2019-04-16T11:26:47.931Z,46.50
2019-04-16T11:29:16.996Z,45.60
2019-04-16T11:31:46.045Z,45.30
2019-04-16T11:34:15.225Z,44.50
2019-04-16T11:36:44.378Z,44.50
2019-04-16T11:39:13.395Z,44.20
2019-04-16T11:41:42.438Z,44.90
2019-04-16T11:44:15.676Z,45.70
2019-04-16T11:46:42.073Z,45.50
2019-04-16T11:49:11.460Z,45.50
2019-04-16T11:51:40.434Z,44.90
2019-04-16T11:54:11.418Z,45.00
2019-04-16T11:56:41.668Z,45.20
2019-04-16T11:59:11.055Z,43.70
2019-04-16T12:01:53.443Z,43.00
2019-04-16T12:04:50.453Z,42.50
2019-04-16T12:07:33.036Z,41.80
2019-04-16T12:10:37.251Z,41.90
2019-04-16T12:13:23.833Z,42.10
2019-04-16T12:16:10.841Z,42.30
2019-04-16T12:18:57.722Z,42.70
2019-04-16T12:22:04.426Z,42.80
2019-04-16T12:24:50.970Z,43.30
2019-04-16T12:27:37.428Z,43.50
2019-04-16T12:30:19.041Z,42.90
2019-04-16T12:32:59.004Z,43.00
2019-04-16T12:35:59.536Z,42.10
2019-04-16T12:38:36.085Z,41.90
2019-04-16T12:41:24.109Z,41.30
2019-04-16T12:44:06.129Z,41.20
2019-04-16T12:46:52.701Z,40.60
2019-04-16T12:49:39.761Z,40.20
2019-04-16T12:52:24.761Z,39.00
2019-04-16T12:55:18.618Z,38.00
2019-04-16T12:58:06.815Z,36.80
2019-04-16T13:00:59.803Z,35.70
2019-04-16T13:03:52.382Z,34.20
2019-04-16T13:06:29.308Z,32.70
2019-04-16T13:09:29.637Z,31.70
2019-04-16T13:12:10.293Z,30.80
2019-04-16T13:15:17.041Z,30.20
2019-04-16T13:18:05.085Z,29.00
2019-04-16T13:20:50.813Z,28.30
2019-04-16T13:23:53.909Z,27.90
2019-04-16T13:26:45.721Z,27.30
2019-04-16T13:29:20.353Z,26.80
2019-04-16T13:31:49.225Z,26.60
2019-04-16T13:34:19.354Z,26.30
2019-04-16T13:36:52.162Z,26.00
2019-04-16T13:39:52.629Z,25.70
2019-04-16T13:42:21.518Z,25.30
2019-04-16T13:44:54.535Z,24.80
2019-04-16T13:47:23.578Z,24.30
2019-04-16T13:50:04.991Z,24.00
2019-04-16T13:52:33.885Z,23.80
2019-04-16T13:55:20.129Z,23.70
2019-04-16T13:58:08.397Z,23.60
2019-04-16T14:00:50.869Z,23.60
2019-04-16T14:03:20.790Z,23.60
2019-04-16T14:05:50.074Z,23.70
2019-04-16T14:08:19.077Z,23.60
2019-04-16T14:10:48.289Z,23.70
2019-04-16T14:13:17.257Z,23.70
2019-04-16T14:15:46.229Z,23.60
2019-04-16T14:18:15.121Z,23.70
2019-04-16T14:20:44.230Z,23.80
2019-04-16T14:23:13.121Z,23.90
2019-04-16T14:25:42.083Z,23.70
2019-04-16T14:28:11.057Z,23.70
2019-04-16T14:30:44.157Z,23.60
2019-04-16T14:33:16.445Z,23.60
2019-04-16T14:35:45.342Z,23.50
2019-04-16T14:38:17.451Z,23.40
2019-04-16T14:40:46.334Z,23.10
2019-04-16T14:43:17.001Z,22.70
2019-04-16T14:45:58.349Z,22.20
2019-04-16T14:48:18.901Z,21.90
2019-04-16T14:50:47.790Z,21.60
2019-04-16T14:53:38.689Z,21.40
2019-04-16T14:56:15.273Z,21.40
2019-04-16T14:59:29.886Z,21.10
2019-04-16T15:01:58.718Z,20.90
2019-04-16T15:04:45.540Z,20.80
2019-04-16T15:07:23.493Z,20.70
2019-04-16T15:10:14.290Z,20.50
2019-04-16T15:12:53.834Z,20.50
2019-04-16T15:15:45.417Z,20.50
2019-04-16T15:18:32.258Z,20.50
2019-04-16T15:21:23.234Z,20.50
2019-04-16T15:24:26.433Z,20.50
2019-04-16T15:27:13.361Z,20.50
2019-04-16T15:30:04.566Z,20.50
2019-04-16T15:32:52.861Z,20.50
2019-04-16T15:35:27.544Z,20.50
2019-04-16T15:38:01.890Z,20.50
2019-04-16T15:40:39.339Z,20.70
2019-04-16T15:43:19.307Z,20.70
2019-04-16T15:46:07.369Z,20.60
2019-04-16T15:48:51.249Z,20.50
2019-04-16T15:51:44.363Z,20.30
2019-04-16T15:54:49.933Z,20.20
2019-04-16T15:57:52.790Z,20.20
2019-04-16T16:00:39.241Z,20.00
2019-04-16T16:03:26.166Z,20.00
2019-04-16T16:06:00.066Z,19.90
2019-04-16T16:08:35.693Z,19.80
2019-04-16T16:11:07.133Z,19.80
2019-04-16T16:13:36.183Z,19.80
2019-04-16T16:16:05.053Z,19.70
2019-04-16T16:18:35.764Z,19.70
2019-04-16T16:21:04.622Z,19.70
2019-04-16T16:23:34.307Z,19.60
2019-04-16T16:26:03.527Z,19.50
2019-04-16T16:28:32.369Z,19.40
2019-04-16T16:31:01.298Z,19.20
2019-04-16T16:33:30.161Z,19.00
2019-04-16T16:36:00.333Z,18.90
2019-04-16T16:38:29.454Z,18.80
2019-04-16T16:40:58.557Z,18.70
2019-04-16T16:43:27.353Z,18.60
2019-04-16T16:46:04.575Z,18.40
2019-04-16T16:48:33.729Z,18.50
2019-04-16T16:51:02.609Z,18.40
2019-04-16T16:53:47.974Z,18.40
2019-04-16T16:56:24.327Z,18.30
2019-04-16T16:58:57.173Z,18.20
2019-04-16T17:01:47.894Z,18.10
2019-04-16T17:04:22.046Z,18.00
2019-04-16T17:06:51.008Z,18.00
2019-04-16T17:09:31.136Z,17.90
2019-04-16T17:12:00.542Z,17.90
2019-04-16T17:14:29.517Z,17.80
2019-04-16T17:17:11.899Z,17.70
2019-04-16T17:19:28.925Z,17.60
2019-04-16T17:21:57.761Z,17.40
2019-04-16T17:24:26.957Z,17.30
2019-04-16T17:26:55.750Z,17.20
2019-04-16T17:29:24.700Z,17.20
2019-04-16T17:31:54.120Z,17.10
2019-04-16T17:34:23.558Z,16.90
2019-04-16T17:36:52.485Z,16.80
2019-04-16T17:39:42.380Z,16.60
2019-04-16T17:42:10.129Z,16.40
2019-04-16T17:44:55.393Z,16.30
2019-04-16T17:47:34.368Z,16.20
2019-04-16T17:50:11.137Z,16.20
2019-04-16T17:53:05.257Z,16.10
2019-04-16T17:55:52.950Z,16.00
2019-04-16T17:58:38.224Z,15.80
2019-04-16T18:01:29.645Z,15.60
2019-04-16T18:04:10.797Z,15.50
2019-04-16T18:06:44.721Z,15.30
2019-04-16T18:09:27.186Z,15.10
2019-04-16T18:12:10.817Z,14.90
2019-04-16T18:15:01.072Z,14.60
2019-04-16T18:17:46.863Z,14.30
2019-04-16T18:20:23.529Z,14.00
2019-04-16T18:23:02.946Z,13.70
2019-04-16T18:26:06.341Z,13.50
2019-04-16T18:28:39.288Z,13.30
2019-04-16T18:31:27.333Z,13.10
2019-04-16T18:34:10.071Z,13.00
2019-04-16T18:36:51.469Z,12.90
2019-04-16T18:39:37.150Z,12.80
2019-04-16T18:42:18.237Z,12.70
2019-04-16T18:45:09.165Z,12.60
2019-04-16T18:47:41.305Z,12.70
2019-04-16T18:50:12.873Z,12.70
2019-04-16T18:52:41.780Z,12.60
2019-04-16T18:55:10.750Z,12.70
2019-04-16T18:57:39.770Z,12.70
2019-04-16T19:00:33.185Z,12.80
2019-04-16T19:03:02.285Z,12.80
2019-04-16T19:05:31.074Z,12.80
2019-04-16T19:08:01.031Z,12.80
2019-04-16T19:10:30.426Z,12.70
2019-04-16T19:12:59.579Z,12.60
2019-04-16T19:15:28.829Z,12.50
2019-04-16T19:17:57.641Z,12.40
2019-04-16T19:20:26.753Z,12.30
2019-04-16T19:22:55.662Z,12.10
2019-04-16T19:25:25.857Z,12.00
2019-04-16T19:27:54.657Z,11.70
2019-04-16T19:30:23.849Z,11.60
2019-04-16T19:32:52.738Z,11.40
2019-04-16T19:35:22.616Z,11.20
2019-04-16T19:37:51.881Z,11.10
2019-04-16T19:40:20.753Z,10.90
2019-04-16T19:42:49.701Z,10.80
2019-04-16T19:45:18.849Z,10.60
2019-04-16T19:47:47.669Z,10.60
2019-04-16T19:50:16.869Z,10.50
2019-04-16T19:52:45.886Z,10.50
2019-04-16T19:55:14.828Z,10.50
2019-04-16T19:57:44.488Z,10.50
2019-04-16T20:00:13.522Z,10.50
2019-04-16T20:02:42.393Z,10.40
2019-04-16T20:05:11.385Z,10.30
2019-04-16T20:07:40.238Z,10.30
2019-04-16T20:10:09.277Z,10.30
2019-04-16T20:12:38.125Z,10.20
2019-04-16T20:15:09.555Z,10.20
2019-04-16T20:17:38.262Z,10.30
2019-04-16T20:20:07.311Z,10.30
2019-04-16T20:22:36.193Z,10.30
2019-04-16T20:25:05.253Z,10.30
2019-04-16T20:27:36.217Z,10.30
2019-04-16T20:30:05.469Z,10.30
2019-04-16T20:32:35.057Z,10.40
2019-04-16T20:35:04.172Z,10.40
2019-04-16T20:37:32.972Z,10.40
2019-04-16T20:40:01.764Z,10.50
2019-04-16T20:42:30.649Z,10.50
2019-04-16T20:44:59.739Z,10.50
2019-04-16T20:47:28.636Z,10.50
2019-04-16T20:49:57.543Z,10.40
2019-04-16T20:52:26.325Z,10.40
2019-04-16T20:54:55.128Z,10.30
2019-04-16T20:57:25.802Z,10.20
2019-04-16T20:59:54.833Z,10.00
2019-04-16T21:02:24.609Z,9.90
2019-04-16T21:04:53.972Z,9.80
2019-04-16T21:07:22.841Z,9.80
2019-04-16T21:09:51.825Z,9.70
2019-04-16T21:12:20.662Z,9.70
2019-04-16T21:14:50.949Z,9.70
2019-04-16T21:17:20.281Z,9.70
2019-04-16T21:19:49.433Z,9.70
2019-04-16T21:22:19.028Z,9.70
2019-04-16T21:24:48.001Z,9.60
2019-04-16T21:27:16.797Z,9.60
2019-04-16T21:29:46.395Z,9.60
2019-04-16T21:32:33.097Z,9.60
2019-04-16T21:35:07.575Z,9.60
2019-04-16T21:37:54.224Z,9.60
2019-04-16T21:40:24.013Z,9.70
2019-04-16T21:42:52.912Z,9.80
2019-04-16T21:45:21.789Z,9.90
2019-04-16T21:47:54.804Z,9.90
2019-04-16T21:50:21.266Z,10.00
2019-04-16T21:52:55.066Z,10.00
2019-04-16T21:55:20.669Z,10.00
2019-04-16T21:57:49.617Z,10.10
2019-04-16T22:00:45.845Z,10.20
2019-04-16T22:03:15.033Z,10.30
2019-04-16T22:05:48.143Z,10.40
2019-04-16T22:08:14.594Z,10.50
2019-04-16T22:10:46.500Z,10.50
2019-04-16T22:13:19.144Z,10.50
2019-04-16T22:15:44.757Z,10.40
2019-04-16T22:18:13.625Z,10.40
2019-04-16T22:20:42.453Z,10.40
2019-04-16T22:23:11.318Z,10.40
2019-04-16T22:25:40.326Z,10.40
2019-04-16T22:28:12.806Z,10.40
2019-04-16T22:30:39.910Z,10.50
2019-04-16T22:33:08.860Z,10.50
2019-04-16T22:35:38.242Z,10.50
2019-04-16T22:38:07.111Z,10.60
2019-04-16T22:40:54.897Z,10.60
2019-04-16T22:43:47.493Z,10.50
2019-04-16T22:46:22.954Z,10.50
2019-04-16T22:48:55.296Z,10.50
2019-04-16T22:51:25.189Z,10.40
2019-04-16T22:53:54.128Z,10.40
2019-04-16T22:56:29.095Z,10.30
2019-04-16T22:58:58.442Z,10.30
2019-04-16T23:01:28.317Z,10.30
2019-04-16T23:03:57.110Z,10.30
2019-04-16T23:06:25.928Z,10.30
2019-04-16T23:08:54.745Z,10.20
2019-04-16T23:11:24.458Z,10.20
2019-04-16T23:13:53.519Z,10.20
2019-04-16T23:16:22.404Z,10.40
2019-04-16T23:18:51.656Z,10.40
2019-04-16T23:21:20.563Z,10.40
2019-04-16T23:23:51.241Z,10.40
2019-04-16T23:26:20.449Z,10.30
2019-04-16T23:28:49.329Z,10.20
2019-04-16T23:31:19.606Z,10.10
2019-04-16T23:33:48.456Z,10.00
2019-04-16T23:36:17.273Z,9.90
2019-04-16T23:38:46.149Z,9.90
2019-04-16T23:41:16.682Z,9.90
2019-04-16T23:43:54.378Z,9.80
2019-04-16T23:46:42.348Z,9.80
2019-04-16T23:49:30.304Z,9.70
2019-04-16T23:52:10.611Z,9.60
2019-04-16T23:54:48.469Z,9.40
2019-04-16T23:57:24.911Z,9.40
2019-04-16T23:59:59.297Z,9.30
